Time;durP1;ratioP1;P1;durP2;ratioP2;P2;SDS_P1;SDS_P2;PMS_P1;PMS_P2;Temp;Humidity;BMP_temperature;BMP_pressure;BME280_temperature;BME280_humidity;BME280_pressure;Samples;Min_cycle;Max_cycle;Signal;HPM_P1;HPM_P2
2023/05/31 00:01:23;;;;;;;21.88;9.00;;;11.40;99.90;;;;;;5062530;28;20055;-70
2023/05/31 00:03:49;;;;;;;20.38;8.32;;;11.40;99.90;;;;;;5062141;28;20041;-70
2023/05/31 00:06:15;;;;;;;25.98;8.32;;;11.40;99.90;;;;;;5062815;28;20033;-70
2023/05/31 00:08:41;;;;;;;26.73;9.23;;;11.30;99.90;;;;;;5061977;28;20032;-69
2023/05/31 00:11:07;;;;;;;30.48;9.55;;;11.30;99.90;;;;;;5061586;28;20029;-69
2023/05/31 00:13:33;;;;;;;23.05;8.77;;;11.30;99.90;;;;;;5061176;28;20028;-70
2023/05/31 00:15:58;;;;;;;23.83;8.45;;;11.30;99.90;;;;;;5062084;28;20040;-69
2023/05/31 00:18:24;;;;;;;22.77;8.70;;;11.30;99.90;;;;;;5062004;28;20033;-69
2023/05/31 00:20:50;;;;;;;25.88;8.98;;;11.20;99.90;;;;;;5062506;28;20090;-70
2023/05/31 00:23:16;;;;;;;19.85;8.70;;;11.30;99.90;;;;;;5061943;28;20075;-70
2023/05/31 00:25:41;;;;;;;26.77;8.23;;;11.30;99.90;;;;;;5060929;28;20021;-70
2023/05/31 00:28:07;;;;;;;21.52;8.85;;;11.30;99.90;;;;;;5060936;28;20021;-70
2023/05/31 00:30:33;;;;;;;24.00;9.02;;;11.20;99.90;;;;;;5061983;28;20104;-70
2023/05/31 00:32:58;;;;;;;24.88;9.32;;;11.20;99.90;;;;;;5060679;28;20464;-70
2023/05/31 00:35:24;;;;;;;22.73;8.82;;;11.20;99.90;;;;;;5060725;28;20089;-69
2023/05/31 00:37:50;;;;;;;27.10;9.23;;;11.20;99.90;;;;;;5060406;28;20078;-69
2023/05/31 00:40:15;;;;;;;29.52;9.25;;;11.20;99.90;;;;;;5062019;28;20580;-70
2023/05/31 00:42:41;;;;;;;25.05;8.75;;;11.20;99.90;;;;;;5062198;28;20048;-69
2023/05/31 00:45:07;;;;;;;26.00;9.10;;;11.20;99.90;;;;;;5061755;28;20025;-69
2023/05/31 00:47:34;;;;;;;20.55;8.23;;;11.20;99.90;;;;;;5061418;28;20021;-71
2023/05/31 00:50:00;;;;;;;29.30;8.90;;;11.20;99.90;;;;;;5061889;28;20040;-70
2023/05/31 00:52:28;;;;;;;23.63;8.82;;;11.20;99.90;;;;;;5061283;28;20319;-69
2023/05/31 00:54:54;;;;;;;23.67;8.88;;;11.20;99.90;;;;;;5061609;28;20033;-71
2023/05/31 00:57:20;;;;;;;28.48;8.88;;;11.20;99.90;;;;;;5061921;28;20040;-68
2023/05/31 00:59:46;;;;;;;25.13;9.10;;;11.20;99.90;;;;;;5060260;28;20116;-69
2023/05/31 01:02:14;;;;;;;28.38;9.07;;;11.20;99.90;;;;;;5061686;28;20514;-70
2023/05/31 01:04:39;;;;;;;30.23;9.43;;;11.20;99.90;;;;;;5061704;28;20029;-69
2023/05/31 01:07:08;;;;;;;26.92;9.75;;;11.10;99.90;;;;;;5060935;28;20033;-70
2023/05/31 01:09:35;;;;;;;20.10;8.25;;;11.10;99.90;;;;;;5061578;28;20107;-71
2023/05/31 01:12:41;;;;;;;21.98;8.63;;;11.10;99.90;;;;;;5061395;28;20032;-68
2023/05/31 01:15:17;;;;;;;20.33;9.38;;;11.10;99.90;;;;;;5050042;28;20055;-70
2023/05/31 01:18:19;;;;;;;21.08;8.73;;;11.10;99.90;;;;;;5061366;28;20533;-69
2023/05/31 01:20:49;;;;;;;26.63;8.23;;;11.10;99.90;;;;;;5064454;28;20025;-70
2023/05/31 01:23:40;;;;;;;22.95;8.57;;;11.10;99.90;;;;;;5064053;28;20040;-69
2023/05/31 01:26:22;;;;;;;27.40;8.52;;;11.10;99.90;;;;;;5063731;28;20028;-70
2023/05/31 01:28:53;;;;;;;22.92;9.00;;;11.10;99.90;;;;;;5063961;28;20017;-68
2023/05/31 01:31:21;;;;;;;27.05;8.65;;;11.10;99.90;;;;;;5065490;28;20060;-69
2023/05/31 01:33:48;;;;;;;24.05;8.80;;;11.00;99.90;;;;;;5064881;28;20056;-70
2023/05/31 01:36:14;;;;;;;23.48;8.60;;;11.00;99.90;;;;;;5064954;28;20017;-71
2023/05/31 01:38:39;;;;;;;27.67;9.00;;;11.00;99.90;;;;;;5065219;28;20033;-70
2023/05/31 01:41:07;;;;;;;21.25;9.07;;;11.00;99.90;;;;;;5065108;28;20118;-70
2023/05/31 01:43:34;;;;;;;22.05;8.57;;;11.00;99.90;;;;;;5065028;28;20033;-70
2023/05/31 01:46:01;;;;;;;23.10;8.85;;;11.00;99.90;;;;;;5065191;28;20025;-70
2023/05/31 01:48:27;;;;;;;20.83;8.30;;;11.00;99.90;;;;;;5064891;28;20067;-70
2023/05/31 01:50:55;;;;;;;21.52;8.07;;;10.90;99.90;;;;;;5064763;28;20053;-70
2023/05/31 01:53:21;;;;;;;21.25;8.45;;;10.80;99.90;;;;;;5064668;28;20040;-71
2023/05/31 01:55:47;;;;;;;20.90;8.15;;;10.90;99.90;;;;;;5064979;28;20382;-70
2023/05/31 01:58:14;;;;;;;23.38;8.60;;;10.90;99.90;;;;;;5065120;28;20029;-69
2023/05/31 02:00:41;;;;;;;25.13;9.25;;;10.90;99.90;;;;;;5064451;28;20323;-70
2023/05/31 02:03:07;;;;;;;23.35;8.55;;;10.90;99.90;;;;;;5063169;28;20052;-69
2023/05/31 02:05:32;;;;;;;19.67;8.40;;;10.90;99.90;;;;;;5063293;28;20096;-69
2023/05/31 02:07:58;;;;;;;27.25;9.30;;;10.90;99.90;;;;;;5064429;28;20530;-70
2023/05/31 02:10:24;;;;;;;20.23;8.77;;;10.90;99.90;;;;;;5063262;28;20036;-70
2023/05/31 02:12:50;;;;;;;20.00;8.20;;;10.80;99.90;;;;;;5063686;28;20036;-70
2023/05/31 02:15:19;;;;;;;26.95;9.25;;;10.80;99.90;;;;;;5063894;28;20021;-70
2023/05/31 02:17:46;;;;;;;23.05;9.07;;;10.80;99.90;;;;;;5063439;28;20016;-70
2023/05/31 02:20:14;;;;;;;23.40;8.38;;;10.80;99.90;;;;;;5064438;28;20716;-69
2023/05/31 02:22:44;;;;;;;27.52;9.57;;;10.80;99.90;;;;;;5063924;28;20059;-69
2023/05/31 02:25:11;;;;;;;22.85;8.63;;;10.80;99.90;;;;;;5063000;28;20025;-69
2023/05/31 02:27:37;;;;;;;24.92;9.73;;;10.80;99.90;;;;;;5064467;28;20077;-69
2023/05/31 02:30:04;;;;;;;22.27;9.00;;;10.80;99.90;;;;;;5063983;28;20029;-69
2023/05/31 02:32:35;;;;;;;19.90;8.40;;;10.80;99.90;;;;;;5063524;28;20029;-69
2023/05/31 02:35:05;;;;;;;22.65;8.32;;;10.80;99.90;;;;;;5064157;28;20021;-70
2023/05/31 02:37:32;;;;;;;25.85;8.82;;;10.80;99.90;;;;;;5062239;28;20378;-70
2023/05/31 02:39:58;;;;;;;25.15;8.40;;;10.80;99.90;;;;;;5064155;28;20029;-69
2023/05/31 02:42:23;;;;;;;20.20;8.07;;;10.80;99.90;;;;;;5063991;28;20037;-69
2023/05/31 02:44:49;;;;;;;25.90;9.15;;;10.80;99.90;;;;;;5063598;28;20033;-69
2023/05/31 02:47:16;;;;;;;24.95;8.43;;;10.80;99.90;;;;;;5064076;28;20041;-70
2023/05/31 02:49:42;;;;;;;26.52;8.88;;;10.70;99.90;;;;;;5063715;28;20021;-70
2023/05/31 02:52:07;;;;;;;21.05;8.90;;;10.70;99.90;;;;;;5063327;28;20101;-69
2023/05/31 02:54:33;;;;;;;24.88;8.98;;;10.80;99.90;;;;;;5063793;28;20036;-70
2023/05/31 02:56:59;;;;;;;26.52;9.77;;;10.70;99.90;;;;;;5062095;28;20080;-71
2023/05/31 02:59:25;;;;;;;24.85;8.80;;;10.70;99.90;;;;;;5062183;28;20029;-69
2023/05/31 03:01:51;;;;;;;21.27;8.27;;;10.80;99.90;;;;;;5062288;28;20044;-69
2023/05/31 03:04:16;;;;;;;24.17;9.23;;;10.80;99.90;;;;;;5063485;28;20027;-70
2023/05/31 03:06:42;;;;;;;23.45;8.63;;;10.70;99.90;;;;;;5063938;28;20017;-70
2023/05/31 03:09:08;;;;;;;23.25;7.97;;;10.70;99.90;;;;;;5063698;28;20017;-68
2023/05/31 03:11:33;;;;;;;31.23;9.18;;;10.70;99.90;;;;;;5063535;28;20053;-68
2023/05/31 03:13:59;;;;;;;18.85;7.78;;;10.70;99.90;;;;;;5061416;28;20025;-70
2023/05/31 03:16:25;;;;;;;23.33;8.30;;;10.70;99.90;;;;;;5063325;28;20029;-69
2023/05/31 03:18:51;;;;;;;21.40;9.02;;;10.70;99.90;;;;;;5061923;28;20017;-70
2023/05/31 03:21:17;;;;;;;16.77;8.23;;;10.70;99.90;;;;;;5063363;28;20040;-69
2023/05/31 03:23:42;;;;;;;21.90;8.07;;;10.70;99.90;;;;;;5063002;28;20039;-69
2023/05/31 03:26:08;;;;;;;23.15;9.05;;;10.70;99.90;;;;;;5063092;28;20067;-69
2023/05/31 03:28:34;;;;;;;27.00;8.43;;;10.70;99.90;;;;;;5062978;28;20836;-68
2023/05/31 03:30:59;;;;;;;23.10;8.32;;;10.60;99.90;;;;;;5061799;28;20025;-70
2023/05/31 03:33:25;;;;;;;23.45;8.82;;;10.70;99.90;;;;;;5062559;28;20018;-69
2023/05/31 03:35:50;;;;;;;24.40;9.68;;;10.70;99.90;;;;;;5061976;28;20027;-69
2023/05/31 03:38:16;;;;;;;22.63;9.00;;;10.70;99.90;;;;;;5062073;28;20041;-69
2023/05/31 03:40:41;;;;;;;23.35;9.07;;;10.70;99.90;;;;;;5062849;28;20037;-69
2023/05/31 03:43:07;;;;;;;20.73;8.73;;;10.70;99.90;;;;;;5060623;28;20056;-68
2023/05/31 03:45:32;;;;;;;21.00;8.45;;;10.70;99.90;;;;;;5062807;28;20037;-68
2023/05/31 03:47:58;;;;;;;19.70;9.00;;;10.70;99.90;;;;;;5062611;28;20032;-70
2023/05/31 03:50:23;;;;;;;24.92;8.63;;;10.70;99.90;;;;;;5061407;28;20033;-69
2023/05/31 03:52:49;;;;;;;21.65;8.60;;;10.60;99.90;;;;;;5061455;28;20032;-71
2023/05/31 03:55:15;;;;;;;21.60;9.38;;;10.60;99.90;;;;;;5062524;28;20077;-71
2023/05/31 03:57:40;;;;;;;22.30;8.90;;;10.50;99.90;;;;;;5062885;28;20025;-68
2023/05/31 04:00:06;;;;;;;20.20;9.40;;;10.60;99.90;;;;;;5060793;28;20037;-67
2023/05/31 04:02:32;;;;;;;22.77;9.63;;;10.60;99.90;;;;;;5060358;28;20064;-70
2023/05/31 04:04:57;;;;;;;24.33;9.40;;;10.60;99.90;;;;;;5061229;28;20470;-68
2023/05/31 04:07:23;;;;;;;24.13;9.15;;;10.70;99.90;;;;;;5062824;28;20602;-69
2023/05/31 04:09:49;;;;;;;22.55;9.27;;;10.70;99.90;;;;;;5061007;28;20017;-68
2023/05/31 04:12:15;;;;;;;18.02;9.02;;;10.70;99.90;;;;;;5062209;28;20025;-69
2023/05/31 04:14:40;;;;;;;21.15;8.52;;;10.70;99.90;;;;;;5061986;28;20044;-68
2023/05/31 04:17:06;;;;;;;22.02;9.52;;;10.60;99.90;;;;;;5062137;28;20029;-68
2023/05/31 04:19:31;;;;;;;21.70;9.23;;;10.70;99.90;;;;;;5062218;28;20039;-69
2023/05/31 04:21:57;;;;;;;22.33;9.45;;;10.70;99.90;;;;;;5061912;28;20021;-69
2023/05/31 04:24:22;;;;;;;22.08;10.43;;;10.70;99.90;;;;;;5060741;28;20025;-68
2023/05/31 04:26:48;;;;;;;21.25;10.27;;;10.80;99.90;;;;;;5062254;28;20117;-69
2023/05/31 04:29:14;;;;;;;20.25;9.18;;;10.80;99.90;;;;;;5061969;28;20040;-69
2023/05/31 04:31:40;;;;;;;24.27;10.13;;;10.80;99.90;;;;;;5060043;28;20029;-70
2023/05/31 04:34:06;;;;;;;26.40;10.40;;;10.80;99.90;;;;;;5060565;28;20013;-67
2023/05/31 04:36:40;;;;;;;26.17;10.77;;;10.90;99.90;;;;;;5061932;28;20051;-68
2023/05/31 04:39:12;;;;;;;36.97;13.02;;;10.90;99.90;;;;;;5061492;28;20017;-69
2023/05/31 04:41:37;;;;;;;31.83;12.75;;;11.00;99.90;;;;;;5061780;28;20029;-68
2023/05/31 04:44:03;;;;;;;26.48;12.55;;;11.00;99.90;;;;;;5061460;28;20060;-68
2023/05/31 04:46:28;;;;;;;30.08;12.88;;;11.10;99.90;;;;;;5061774;28;20025;-69
2023/05/31 04:48:55;;;;;;;25.60;12.13;;;11.10;99.90;;;;;;5061865;28;20071;-68
2023/05/31 04:51:21;;;;;;;27.48;11.38;;;11.20;99.90;;;;;;5061416;28;20043;-68
2023/05/31 04:53:47;;;;;;;26.75;12.55;;;11.30;99.90;;;;;;5061572;28;20064;-69
2023/05/31 04:56:13;;;;;;;27.42;12.48;;;11.30;99.90;;;;;;5061675;28;20048;-67
2023/05/31 04:58:39;;;;;;;27.77;12.23;;;11.40;99.90;;;;;;5061303;28;20021;-70
2023/05/31 05:01:05;;;;;;;28.38;12.10;;;11.50;99.90;;;;;;5061880;28;20035;-68
2023/05/31 05:03:31;;;;;;;22.88;12.00;;;11.50;99.90;;;;;;5061325;28;20073;-69
2023/05/31 05:05:57;;;;;;;25.80;12.38;;;11.60;99.90;;;;;;5061194;28;20051;-68
2023/05/31 05:08:22;;;;;;;27.63;12.60;;;11.70;99.90;;;;;;5061716;28;20021;-68
2023/05/31 05:10:48;;;;;;;34.95;12.70;;;11.70;99.90;;;;;;5061329;28;20389;-69
2023/05/31 05:13:16;;;;;;;30.73;12.18;;;11.70;99.90;;;;;;5061719;28;20021;-70
2023/05/31 05:15:41;;;;;;;27.98;11.60;;;11.80;99.90;;;;;;5060503;28;20035;-69
2023/05/31 05:18:07;;;;;;;28.85;11.73;;;11.80;99.90;;;;;;5060116;28;20064;-68
2023/05/31 05:20:32;;;;;;;25.30;11.13;;;11.80;99.90;;;;;;5059595;28;20025;-70
2023/05/31 05:23:02;;;;;;;27.77;10.55;;;11.90;99.90;;;;;;5061511;28;20048;-69
2023/05/31 05:25:27;;;;;;;26.08;11.52;;;11.90;99.90;;;;;;5060870;28;20033;-69
2023/05/31 05:27:53;;;;;;;20.27;10.30;;;12.00;99.90;;;;;;5061380;28;20029;-68
2023/05/31 05:30:18;;;;;;;25.77;10.88;;;12.00;99.90;;;;;;5061663;28;20017;-70
2023/05/31 05:32:44;;;;;;;20.70;10.68;;;12.10;99.90;;;;;;5060030;28;20029;-69
2023/05/31 05:35:10;;;;;;;24.85;10.93;;;12.10;99.90;;;;;;5061238;28;20029;-68
2023/05/31 05:37:35;;;;;;;26.20;10.85;;;12.10;99.90;;;;;;5060073;28;20056;-68
2023/05/31 05:40:01;;;;;;;27.65;11.07;;;12.20;99.90;;;;;;5060509;28;20120;-68
2023/05/31 05:42:28;;;;;;;22.40;9.00;;;12.20;99.90;;;;;;5061419;28;20040;-70
2023/05/31 05:44:53;;;;;;;28.38;10.68;;;12.20;99.90;;;;;;5061176;28;20083;-68
2023/05/31 05:47:19;;;;;;;27.33;11.15;;;12.30;99.90;;;;;;5061199;28;20474;-69
2023/05/31 05:49:44;;;;;;;27.23;10.07;;;12.30;99.90;;;;;;5061728;28;20067;-70
2023/05/31 05:52:10;;;;;;;24.58;9.35;;;12.40;99.90;;;;;;5061349;28;20045;-69
2023/05/31 05:54:36;;;;;;;21.92;9.27;;;12.40;99.90;;;;;;5059524;28;20047;-68
2023/05/31 05:57:01;;;;;;;20.92;8.80;;;12.50;99.90;;;;;;5060164;28;20017;-69
2023/05/31 05:59:27;;;;;;;22.50;9.05;;;12.50;99.90;;;;;;5061278;28;20108;-69
2023/05/31 06:01:54;;;;;;;18.70;8.77;;;12.70;99.90;;;;;;5059586;28;20470;-68
2023/05/31 06:04:19;;;;;;;20.50;8.20;;;12.80;99.90;;;;;;5061299;28;20036;-70
2023/05/31 06:06:45;;;;;;;21.25;8.70;;;12.80;99.90;;;;;;5063070;28;20390;-68
2023/05/31 06:09:11;;;;;;;17.10;8.10;;;12.90;99.90;;;;;;5064566;28;20025;-69
2023/05/31 06:11:36;;;;;;;19.55;7.55;;;13.00;99.90;;;;;;5064997;28;20025;-68
2023/05/31 06:14:02;;;;;;;19.05;8.10;;;13.10;99.90;;;;;;5064611;28;20080;-69
2023/05/31 06:16:28;;;;;;;14.85;8.30;;;13.10;99.90;;;;;;5064722;28;20373;-69
2023/05/31 06:18:54;;;;;;;17.50;8.02;;;13.20;99.90;;;;;;5064798;28;20035;-70
2023/05/31 06:21:19;;;;;;;17.63;7.72;;;13.20;99.90;;;;;;5064624;28;20104;-69
2023/05/31 06:23:45;;;;;;;14.65;6.70;;;13.30;99.90;;;;;;5063897;28;20410;-70
2023/05/31 06:26:11;;;;;;;17.30;7.47;;;13.40;99.90;;;;;;5064422;28;20112;-68
2023/05/31 06:28:36;;;;;;;17.30;6.68;;;13.50;99.90;;;;;;5064201;28;20032;-68
2023/05/31 06:31:02;;;;;;;13.73;6.43;;;13.50;99.90;;;;;;5064398;28;20031;-68
2023/05/31 06:33:28;;;;;;;14.48;6.28;;;13.60;99.90;;;;;;5064168;28;20127;-69
2023/05/31 06:35:53;;;;;;;15.57;6.43;;;13.70;99.90;;;;;;5063908;28;20025;-68
2023/05/31 06:38:21;;;;;;;15.18;5.78;;;13.80;99.90;;;;;;5064289;28;20538;-69
2023/05/31 06:40:47;;;;;;;15.43;5.72;;;13.90;99.90;;;;;;5064045;28;20020;-68
2023/05/31 06:43:13;;;;;;;13.27;5.20;;;13.90;99.90;;;;;;5063939;28;20044;-68
2023/05/31 06:45:41;;;;;;;14.80;5.50;;;14.00;99.90;;;;;;5064571;28;20392;-68
2023/05/31 06:48:08;;;;;;;14.32;5.70;;;14.10;99.90;;;;;;5064195;28;20375;-68
2023/05/31 06:50:33;;;;;;;12.02;5.10;;;14.10;99.90;;;;;;5063187;28;20021;-69
2023/05/31 06:52:59;;;;;;;17.15;5.03;;;14.20;99.90;;;;;;5064074;28;20064;-68
2023/05/31 06:55:25;;;;;;;10.30;5.10;;;14.30;99.90;;;;;;5063964;28;20111;-69
2023/05/31 06:57:50;;;;;;;9.75;4.20;;;14.30;99.90;;;;;;5063108;28;20543;-69
2023/05/31 07:00:17;;;;;;;10.30;4.35;;;14.40;99.90;;;;;;5064115;28;20437;-69
2023/05/31 07:02:42;;;;;;;16.90;5.32;;;14.50;99.90;;;;;;5062380;28;20041;-68
2023/05/31 07:05:08;;;;;;;17.20;4.95;;;14.50;99.90;;;;;;5063928;28;20070;-69
2023/05/31 07:07:33;;;;;;;9.75;4.40;;;14.70;99.90;;;;;;5064027;28;20021;-69
2023/05/31 07:09:59;;;;;;;12.43;4.53;;;14.80;99.90;;;;;;5063479;28;20044;-69
2023/05/31 07:12:25;;;;;;;11.65;4.20;;;14.90;99.90;;;;;;5062332;28;20040;-68
2023/05/31 07:14:50;;;;;;;10.50;3.75;;;15.00;99.90;;;;;;5062244;28;20108;-71
2023/05/31 07:17:16;;;;;;;10.77;3.70;;;15.10;99.90;;;;;;5061836;28;20027;-70
2023/05/31 07:19:46;;;;;;;8.48;3.75;;;15.10;99.90;;;;;;5062996;28;20150;-69
2023/05/31 07:22:16;;;;;;;9.05;3.40;;;15.20;99.90;;;;;;5062140;28;20041;-68
2023/05/31 07:24:42;;;;;;;8.43;3.50;;;15.20;99.90;;;;;;5061090;28;20029;-70
2023/05/31 07:27:08;;;;;;;16.33;4.25;;;15.30;99.90;;;;;;5056109;28;20040;-69
2023/05/31 07:29:34;;;;;;;10.60;4.07;;;15.40;99.90;;;;;;5059803;28;20037;-70
2023/05/31 07:32:03;;;;;;;9.70;3.85;;;15.50;99.90;;;;;;5056967;28;20036;-71
2023/05/31 07:34:28;;;;;;;11.30;3.53;;;15.60;99.90;;;;;;5056495;28;20089;-69
2023/05/31 07:36:55;;;;;;;14.68;4.03;;;15.70;99.90;;;;;;5059948;28;20029;-71
2023/05/31 07:39:24;;;;;;;9.25;3.25;;;15.70;99.90;;;;;;5060741;28;20083;-71
2023/05/31 07:41:49;;;;;;;11.43;3.78;;;15.70;99.90;;;;;;5062951;28;20041;-70
2023/05/31 07:44:16;;;;;;;8.05;3.50;;;15.90;99.90;;;;;;5062796;28;20033;-70
2023/05/31 07:46:42;;;;;;;13.43;4.25;;;16.00;99.90;;;;;;5060929;28;20029;-70
2023/05/31 07:49:08;;;;;;;12.23;3.58;;;16.10;99.90;;;;;;5060803;28;20089;-70
2023/05/31 07:51:33;;;;;;;13.00;3.70;;;16.10;99.90;;;;;;5062257;28;20071;-69
2023/05/31 07:53:59;;;;;;;10.25;3.97;;;16.20;99.90;;;;;;5062722;28;20029;-69
2023/05/31 07:56:25;;;;;;;12.00;3.90;;;16.20;99.90;;;;;;5062691;28;20028;-67
2023/05/31 07:58:51;;;;;;;14.95;3.83;;;16.30;99.90;;;;;;5062472;28;20060;-71
2023/05/31 08:01:17;;;;;;;14.73;3.92;;;16.30;99.90;;;;;;5061624;28;20055;-69
2023/05/31 08:03:43;;;;;;;12.45;3.55;;;16.40;99.90;;;;;;5060760;28;20029;-68
2023/05/31 08:06:09;;;;;;;9.98;3.72;;;16.50;99.90;;;;;;5060870;28;20059;-69
2023/05/31 08:08:34;;;;;;;10.77;4.10;;;16.60;99.90;;;;;;5060077;28;20033;-69
2023/05/31 08:11:00;;;;;;;8.48;3.63;;;16.60;99.90;;;;;;5061822;28;20436;-69
2023/05/31 08:13:28;;;;;;;9.82;3.53;;;16.70;99.90;;;;;;5061997;28;20036;-69
2023/05/31 08:15:54;;;;;;;24.08;4.55;;;16.80;99.90;;;;;;5062684;28;20025;-71
2023/05/31 08:18:20;;;;;;;15.20;4.05;;;16.80;99.90;;;;;;5061819;28;20079;-70
2023/05/31 08:20:46;;;;;;;10.15;3.58;;;16.80;99.90;;;;;;5062399;28;20409;-71
2023/05/31 08:23:21;;;;;;;13.05;4.00;;;17.00;99.90;;;;;;5062233;28;20037;-69
2023/05/31 08:25:48;;;;;;;15.00;3.70;;;17.00;99.90;;;;;;5061748;28;20029;-69
2023/05/31 08:28:14;;;;;;;10.60;3.65;;;17.10;99.90;;;;;;5062506;28;20044;-69
2023/05/31 08:30:40;;;;;;;8.95;3.90;;;17.20;99.90;;;;;;5057556;28;20629;-70
2023/05/31 08:33:05;;;;;;;18.27;3.80;;;17.30;99.90;;;;;;5058296;28;20025;-69
2023/05/31 08:35:31;;;;;;;11.00;3.08;;;17.20;99.90;;;;;;5056702;28;20481;-67
2023/05/31 08:37:57;;;;;;;9.20;3.50;;;17.40;99.90;;;;;;5061296;28;20109;-67
2023/05/31 08:40:23;;;;;;;22.73;4.85;;;17.50;99.90;;;;;;5060872;28;20037;-69
2023/05/31 08:43:15;;;;;;;16.92;3.72;;;17.60;99.90;;;;;;5062309;28;20040;-67
2023/05/31 08:45:42;;;;;;;15.32;3.55;;;17.70;99.90;;;;;;5061040;28;20401;-67
2023/05/31 08:48:22;;;;;;;9.25;3.30;;;17.80;99.90;;;;;;5060220;28;20032;-69
2023/05/31 08:50:49;;;;;;;11.70;3.15;;;17.90;99.90;;;;;;5061479;28;20037;-70
2023/05/31 08:53:16;;;;;;;14.68;3.40;;;18.00;99.90;;;;;;5052880;28;20032;-66
2023/05/31 08:55:48;;;;;;;11.02;3.08;;;18.10;99.90;;;;;;5055406;28;20514;-67
2023/05/31 08:58:16;;;;;;;7.95;2.95;;;18.20;99.90;;;;;;5058771;28;20029;-68
2023/05/31 09:00:41;;;;;;;21.80;3.78;;;18.40;99.90;;;;;;5059677;28;20477;-68
2023/05/31 09:03:10;;;;;;;8.65;3.00;;;18.60;99.90;;;;;;5059875;28;20093;-68
2023/05/31 09:05:35;;;;;;;7.80;2.67;;;18.80;99.90;;;;;;5059045;28;20468;-68
2023/05/31 09:08:02;;;;;;;12.45;3.03;;;18.80;99.90;;;;;;5058792;28;20059;-67
2023/05/31 09:10:28;;;;;;;7.43;2.97;;;18.90;99.90;;;;;;5060499;28;20413;-67
2023/05/31 09:12:54;;;;;;;6.38;2.28;;;19.00;99.90;;;;;;5059065;28;20024;-67
2023/05/31 09:15:23;;;;;;;5.80;2.60;;;19.00;99.90;;;;;;5061641;28;20017;-68
2023/05/31 09:17:49;;;;;;;9.25;2.75;;;19.10;99.90;;;;;;5057328;28;20040;-68
2023/05/31 09:20:15;;;;;;;9.65;2.60;;;19.20;99.90;;;;;;5059937;28;20323;-67
2023/05/31 09:22:41;;;;;;;5.70;2.25;;;19.30;99.90;;;;;;5058528;28;20037;-67
2023/05/31 09:25:07;;;;;;;9.45;2.78;;;19.30;99.90;;;;;;5061218;28;20544;-69
2023/05/31 09:27:36;;;;;;;7.43;2.78;;;19.40;99.90;;;;;;5061217;28;20023;-70
2023/05/31 09:30:08;;;;;;;8.57;2.38;;;19.40;99.90;;;;;;5060019;28;20048;-67
2023/05/31 09:32:35;;;;;;;12.50;2.97;;;19.50;99.90;;;;;;5061143;28;20025;-68
2023/05/31 09:35:15;;;;;;;7.03;3.00;;;19.60;99.90;;;;;;5061120;28;20116;-68
2023/05/31 09:37:49;;;;;;;8.60;2.85;;;19.60;99.90;;;;;;5059486;28;20412;-68
2023/05/31 09:40:29;;;;;;;6.97;2.95;;;19.60;99.90;;;;;;5062015;28;20029;-67
2023/05/31 09:42:55;;;;;;;9.02;2.90;;;19.70;99.90;;;;;;5063504;28;20041;-67
2023/05/31 09:45:21;;;;;;;11.23;3.38;;;19.70;99.90;;;;;;5062597;28;20067;-67
2023/05/31 09:47:48;;;;;;;7.35;3.00;;;19.80;99.90;;;;;;5059303;28;20028;-68
2023/05/31 09:50:22;;;;;;;8.25;3.28;;;19.90;99.90;;;;;;5063208;28;20513;-69
2023/05/31 09:52:54;;;;;;;13.43;3.70;;;19.90;99.90;;;;;;5063460;28;20044;-69
2023/05/31 09:55:20;;;;;;;10.82;3.40;;;20.00;99.90;;;;;;5065230;28;20201;-69
2023/05/31 09:57:52;;;;;;;8.45;3.30;;;20.10;99.90;;;;;;5064712;28;20031;-69
2023/05/31 10:00:18;;;;;;;12.13;3.90;;;20.10;99.90;;;;;;5064632;28;20017;-68
2023/05/31 10:02:49;;;;;;;10.15;3.83;;;20.20;99.90;;;;;;5064652;28;20088;-67
2023/05/31 10:05:16;;;;;;;11.27;3.78;;;20.30;99.90;;;;;;5061687;28;20032;-69
2023/05/31 10:07:52;;;;;;;10.45;3.97;;;20.30;99.90;;;;;;5062628;28;20064;-67
2023/05/31 10:10:21;;;;;;;11.80;3.83;;;20.40;99.90;;;;;;5064151;28;20044;-68
2023/05/31 10:12:50;;;;;;;13.43;4.32;;;20.40;99.90;;;;;;5063271;28;20017;-69
2023/05/31 10:15:25;;;;;;;10.10;4.25;;;20.50;99.90;;;;;;5061016;28;20016;-68
2023/05/31 10:17:55;;;;;;;9.90;4.88;;;20.60;99.90;;;;;;5063007;28;20059;-68
2023/05/31 10:20:24;;;;;;;11.30;4.30;;;20.70;99.90;;;;;;5064555;28;20027;-68
2023/05/31 10:22:52;;;;;;;10.35;4.53;;;20.80;99.90;;;;;;5064368;28;20037;-68
2023/05/31 10:25:27;;;;;;;14.40;5.03;;;20.90;99.90;;;;;;5058930;28;20037;-68
2023/05/31 10:27:55;;;;;;;13.45;4.22;;;20.90;99.90;;;;;;5061038;28;20029;-69
2023/05/31 10:30:26;;;;;;;12.57;4.65;;;20.90;99.90;;;;;;5061310;28;20021;-69
2023/05/31 10:33:07;;;;;;;10.93;4.38;;;20.90;99.90;;;;;;5061538;28;20112;-69
2023/05/31 10:35:33;;;;;;;11.20;4.00;;;21.00;99.90;;;;;;5061419;28;20088;-68
2023/05/31 10:38:01;;;;;;;9.50;3.83;;;21.00;99.90;;;;;;5061701;28;20039;-67
2023/05/31 10:40:42;;;;;;;11.27;3.83;;;21.10;99.90;;;;;;5061994;28;20035;-66
2023/05/31 10:43:47;;;;;;;10.55;3.75;;;21.10;99.90;;;;;;5059965;28;20048;-67
2023/05/31 10:46:20;;;;;;;13.57;3.25;;;21.20;99.90;;;;;;5060204;28;20119;-69
2023/05/31 10:48:53;;;;;;;10.00;3.22;;;21.20;99.90;;;;;;5063549;28;20045;-68
2023/05/31 10:51:18;;;;;;;13.73;3.60;;;21.20;99.90;;;;;;5062946;28;20099;-68
2023/05/31 10:53:50;;;;;;;11.25;3.63;;;21.30;99.90;;;;;;5060304;28;20498;-67
2023/05/31 10:56:18;;;;;;;15.43;3.85;;;21.30;99.90;;;;;;5063530;28;20020;-69
2023/05/31 10:58:52;;;;;;;15.93;4.25;;;21.30;99.90;;;;;;5062565;28;20017;-67
2023/05/31 11:01:20;;;;;;;14.23;3.90;;;21.30;99.90;;;;;;5063427;28;20031;-67
2023/05/31 11:03:51;;;;;;;18.95;4.18;;;21.30;99.90;;;;;;5062065;28;20045;-70
2023/05/31 11:06:38;;;;;;;17.45;4.47;;;21.30;99.90;;;;;;5060429;28;20503;-68
2023/05/31 11:09:11;;;;;;;14.05;4.72;;;21.20;99.90;;;;;;5062401;28;20025;-66
2023/05/31 11:11:39;;;;;;;11.83;4.20;;;21.30;99.90;;;;;;5063325;28;20029;-68
2023/05/31 11:14:26;;;;;;;13.45;4.82;;;21.30;99.90;;;;;;5060453;28;20295;-68
2023/05/31 11:17:01;;;;;;;12.05;4.70;;;21.40;99.90;;;;;;5063082;28;20077;-67
2023/05/31 11:19:31;;;;;;;11.25;4.50;;;21.40;99.90;;;;;;5061919;28;20044;-66
2023/05/31 11:22:06;;;;;;;13.63;4.78;;;21.50;99.90;;;;;;5060823;28;20063;-67
2023/05/31 11:24:31;;;;;;;;;;;21.60;99.90;;;;;;5059193;28;20086;-67
2023/05/31 11:27:01;;;;;;;10.43;4.40;;;21.60;99.90;;;;;;5058529;28;19917;-67
2023/05/31 11:29:52;;;;;;;10.80;4.65;;;21.70;99.90;;;;;;5061370;28;20029;-67
2023/05/31 11:32:17;;;;;;;11.05;4.00;;;21.80;99.90;;;;;;5060498;28;20021;-68
2023/05/31 11:35:04;;;;;;;12.60;4.10;;;21.90;99.90;;;;;;5061874;28;20055;-66
2023/05/31 11:37:31;;;;;;;14.30;4.72;;;21.90;99.90;;;;;;5061951;28;20074;-67
2023/05/31 11:40:01;;;;;;;11.13;4.20;;;22.00;99.90;;;;;;5061607;28;20081;-66
2023/05/31 11:42:31;;;;;;;8.30;4.00;;;22.00;99.90;;;;;;5061443;28;20112;-67
2023/05/31 11:45:05;;;;;;;9.32;3.53;;;22.00;99.90;;;;;;5062159;28;20124;-67
2023/05/31 11:48:03;;;;;;;11.93;3.60;;;22.00;99.90;;;;;;5062497;28;20028;-68
2023/05/31 11:50:29;;;;;;;12.02;3.50;;;22.10;99.90;;;;;;5062429;28;20056;-68
2023/05/31 11:52:55;;;;;;;11.35;3.13;;;22.10;99.90;;;;;;5061746;28;20024;-68
2023/05/31 11:55:21;;;;;;;11.52;3.00;;;22.20;99.90;;;;;;5062948;28;20033;-71
2023/05/31 11:57:51;;;;;;;8.40;2.90;;;22.20;99.90;;;;;;5061197;28;20029;-67
2023/05/31 12:00:21;;;;;;;10.50;3.30;;;22.20;99.90;;;;;;5063206;28;20025;-66
2023/05/31 12:02:52;;;;;;;10.32;3.10;;;22.20;99.90;;;;;;5061747;28;20420;-69
2023/05/31 12:05:18;;;;;;;6.50;2.75;;;22.20;99.90;;;;;;5061771;28;20025;-67
2023/05/31 12:07:46;;;;;;;10.63;3.05;;;22.30;99.90;;;;;;5061372;28;20029;-67
2023/05/31 12:10:12;;;;;;;8.55;2.65;;;22.40;99.90;;;;;;5061756;28;20025;-68
2023/05/31 12:12:41;;;;;;;9.85;2.80;;;22.50;99.90;;;;;;5062184;28;20036;-68
2023/05/31 12:15:08;;;;;;;11.82;2.47;;;22.60;99.90;;;;;;5062121;28;20021;-68
2023/05/31 12:17:34;;;;;;;8.20;2.53;;;22.70;99.90;;;;;;5061531;28;20028;-67
2023/05/31 12:20:00;;;;;;;8.93;2.33;;;22.80;99.90;;;;;;5062411;28;20025;-68
2023/05/31 12:22:26;;;;;;;7.75;2.05;;;22.80;99.90;;;;;;5062291;28;20040;-67
2023/05/31 12:24:54;;;;;;;7.25;2.35;;;22.80;99.90;;;;;;5061364;28;20029;-69
2023/05/31 12:27:22;;;;;;;6.50;2.15;;;22.90;99.90;;;;;;5062584;28;20017;-68
2023/05/31 12:29:47;;;;;;;16.63;2.85;;;22.90;99.90;;;;;;5061183;28;20021;-68
2023/05/31 12:32:13;;;;;;;9.52;2.38;;;23.00;99.90;;;;;;5062066;28;20055;-67
2023/05/31 12:34:39;;;;;;;10.80;2.55;;;23.00;99.90;;;;;;5062103;28;20177;-69
2023/05/31 12:37:09;;;;;;;6.38;1.90;;;23.10;99.90;;;;;;5056468;28;20048;-69
2023/05/31 12:39:36;;;;;;;5.03;2.22;;;23.20;99.90;;;;;;5059527;28;20029;-68
2023/05/31 12:42:03;;;;;;;9.77;2.63;;;23.40;99.90;;;;;;5061655;28;20081;-68